createdAt,value
2019-04-05T00:00:09.498Z,25.68
2019-04-05T00:05:16.855Z,23.98
2019-04-05T00:10:22.186Z,24.00
2019-04-05T00:15:27.863Z,24.32
2019-04-05T00:20:33.207Z,24.20
2019-04-05T00:25:39.079Z,24.43
2019-04-05T00:30:44.837Z,24.43
2019-04-05T00:35:50.179Z,26.68
2019-04-05T00:40:55.409Z,25.27
2019-04-05T00:46:00.814Z,24.50
2019-04-05T00:51:06.147Z,24.02
2019-04-05T00:56:11.511Z,24.55
2019-04-05T01:01:17.310Z,22.63
2019-04-05T01:06:23.857Z,23.32
2019-04-05T01:11:29.130Z,23.20
2019-04-05T01:16:35.135Z,23.10
2019-04-05T01:21:42.139Z,22.75
2019-04-05T01:26:49.548Z,22.40
2019-04-05T01:31:55.257Z,20.43
2019-04-05T01:37:01.380Z,22.40
2019-04-05T01:42:07.227Z,22.00
2019-04-05T01:47:12.813Z,22.37
2019-04-05T01:52:18.134Z,20.23
2019-04-05T01:57:23.439Z,19.23
2019-04-05T02:02:29.236Z,21.23
2019-04-05T02:07:34.528Z,22.40
2019-04-05T02:12:41.768Z,24.67
2019-04-05T02:17:47.260Z,25.10
2019-04-05T02:22:52.821Z,24.40
2019-04-05T02:27:59.014Z,23.12
2019-04-05T02:33:04.598Z,25.50
2019-04-05T02:38:09.941Z,26.65
2019-04-05T02:43:18.078Z,25.35
2019-04-05T02:48:24.312Z,26.30
2019-04-05T02:53:31.762Z,19.80
2019-04-05T02:58:38.839Z,20.92
2019-04-05T03:03:44.305Z,20.73
2019-04-05T03:08:50.083Z,22.20
2019-04-05T03:13:57.614Z,22.83
2019-04-05T03:19:10.331Z,26.00
2019-04-05T03:24:19.119Z,26.73
2019-04-05T03:29:25.172Z,25.82
2019-04-05T03:34:30.540Z,24.65
2019-04-05T03:39:35.963Z,22.93
2019-04-05T03:44:42.608Z,22.67
2019-04-05T03:49:48.417Z,22.25
2019-04-05T03:54:54.219Z,26.48
2019-04-05T03:59:59.811Z,28.20
2019-04-05T04:05:05.669Z,24.92
2019-04-05T04:10:16.620Z,24.52
2019-04-05T04:15:22.032Z,24.37
2019-04-05T04:20:40.796Z,24.40
2019-04-05T04:25:46.401Z,23.93
2019-04-05T04:30:52.471Z,24.27
2019-04-05T04:35:57.836Z,25.82
2019-04-05T04:41:03.550Z,25.72
2019-04-05T04:46:09.541Z,26.65
2019-04-05T04:51:15.162Z,34.88
2019-04-05T04:56:20.799Z,26.42
2019-04-05T05:01:26.379Z,23.95
2019-04-05T05:06:31.779Z,26.35
2019-04-05T05:11:37.310Z,26.42
2019-04-05T05:16:43.198Z,24.60
2019-04-05T05:21:49.789Z,26.02
2019-04-05T05:26:55.293Z,28.40
2019-04-05T05:32:00.962Z,27.40
2019-04-05T05:37:06.504Z,29.72
2019-04-05T05:42:11.797Z,28.30
2019-04-05T05:47:17.032Z,26.42
2019-04-05T05:52:22.644Z,23.02
2019-04-05T05:57:27.938Z,25.37
2019-04-05T06:02:33.295Z,25.43
2019-04-05T06:07:39.096Z,25.43
2019-04-05T06:12:45.502Z,23.92
2019-04-05T06:18:03.823Z,22.93
2019-04-05T06:22:58.130Z,25.27
2019-04-05T06:28:03.350Z,23.85
2019-04-05T06:33:08.840Z,23.40
2019-04-05T06:38:14.538Z,22.17
2019-04-05T06:43:19.760Z,24.03
2019-04-05T06:48:25.082Z,22.37
2019-04-05T06:53:30.324Z,25.25
2019-04-05T06:58:35.832Z,22.02
2019-04-05T07:03:41.094Z,21.12
2019-04-05T07:08:53.683Z,21.55
2019-04-05T07:13:53.774Z,24.80
2019-04-05T07:18:59.011Z,21.27
2019-04-05T07:24:04.342Z,21.23
2019-04-05T07:29:10.848Z,21.75
2019-04-05T07:34:16.611Z,22.05
2019-04-05T07:39:22.026Z,22.10
2019-04-05T07:44:27.289Z,21.60
2019-04-05T07:49:32.781Z,21.30
2019-04-05T07:54:38.104Z,21.95
2019-04-05T07:59:43.415Z,21.02
2019-04-05T08:04:49.182Z,19.65
2019-04-05T08:09:56.258Z,19.52
2019-04-05T08:15:02.220Z,19.82
2019-04-05T08:20:07.666Z,19.00
2019-04-05T08:25:13.264Z,19.33
2019-04-05T08:33:09.600Z,19.25
2019-04-05T08:38:15.011Z,15.77
2019-04-05T08:43:20.581Z,16.15
2019-04-05T08:48:25.882Z,15.98
2019-04-05T08:53:31.129Z,14.50
2019-04-05T08:58:36.342Z,15.30
2019-04-05T09:03:41.807Z,15.35
2019-04-05T09:08:47.110Z,14.98
2019-04-05T09:13:52.723Z,14.53
2019-04-05T09:18:57.986Z,14.93
2019-04-05T09:24:03.225Z,13.27
2019-04-05T09:29:09.408Z,14.13
2019-04-05T09:34:15.220Z,12.63
2019-04-05T09:39:20.884Z,13.80
2019-04-05T09:44:26.305Z,14.55
2019-04-05T09:49:37.074Z,13.00
2019-04-05T09:54:39.072Z,14.93
2019-04-05T09:59:44.309Z,13.70
2019-04-05T10:04:49.983Z,12.05
2019-04-05T10:09:55.297Z,10.57
2019-04-05T10:16:14.257Z,11.05
2019-04-05T10:21:19.554Z,10.68
2019-04-05T10:26:25.123Z,11.65
2019-04-05T10:31:30.800Z,11.03
2019-04-05T10:36:36.401Z,12.00
2019-04-05T10:41:42.031Z,12.25
2019-04-05T10:46:47.491Z,13.23
2019-04-05T10:51:52.973Z,13.48
2019-04-05T10:56:58.343Z,13.08
2019-04-05T11:02:03.813Z,13.53
2019-04-05T11:07:09.243Z,13.48
2019-04-05T11:12:14.673Z,13.20
2019-04-05T11:17:20.029Z,13.28
2019-04-05T11:22:25.475Z,14.17
2019-04-05T11:27:30.972Z,13.50
2019-04-05T11:32:36.686Z,24.95
2019-04-05T11:37:42.077Z,16.40
2019-04-05T11:42:48.814Z,14.23
2019-04-05T11:47:55.681Z,14.03
2019-04-05T11:53:03.092Z,13.60
2019-04-05T11:58:08.367Z,13.68
2019-04-05T12:03:14.039Z,15.57
2019-04-05T12:08:19.456Z,17.87
2019-04-05T12:13:24.712Z,16.32
2019-04-05T12:18:30.028Z,16.50
2019-04-05T12:23:35.370Z,19.73
2019-04-05T12:28:41.026Z,13.60
2019-04-05T12:33:47.041Z,14.10
2019-04-05T12:38:54.172Z,14.03
2019-04-05T12:44:00.674Z,14.55
2019-04-05T12:49:06.698Z,17.17
2019-04-05T12:54:12.040Z,15.53
2019-04-05T12:59:17.315Z,14.80
2019-04-05T13:04:22.891Z,14.53
2019-04-05T13:09:28.659Z,16.37
2019-04-05T13:14:34.065Z,15.23
2019-04-05T13:19:39.692Z,14.60
2019-04-05T13:24:45.369Z,14.20
2019-04-05T13:29:51.026Z,14.23
2019-04-05T13:34:56.500Z,14.95
2019-04-05T13:40:06.248Z,15.13
2019-04-05T13:45:11.579Z,14.30
2019-04-05T13:50:19.419Z,14.50
2019-04-05T13:55:24.191Z,14.13
2019-04-05T14:00:29.522Z,14.33
2019-04-05T14:05:35.315Z,13.93
2019-04-05T14:10:41.936Z,14.43
2019-04-05T14:15:47.178Z,14.37
2019-04-05T14:20:52.838Z,15.00
2019-04-05T14:25:59.913Z,14.98
2019-04-05T14:31:05.692Z,14.50
2019-04-05T14:36:11.093Z,16.67
2019-04-05T14:41:17.162Z,16.52
2019-04-05T14:46:22.451Z,15.83
2019-04-05T14:51:28.655Z,15.88
2019-04-05T14:56:36.557Z,18.20
2019-04-05T15:01:42.168Z,25.05
2019-04-05T15:06:48.645Z,18.85
2019-04-05T15:11:56.453Z,21.55
2019-04-05T15:17:02.864Z,17.90
2019-04-05T15:22:10.902Z,17.48
2019-04-05T15:27:15.293Z,16.95
2019-04-05T15:32:20.972Z,16.13
2019-04-05T15:37:26.542Z,18.93
2019-04-05T15:42:32.007Z,19.70
2019-04-05T15:47:39.394Z,20.68
2019-04-05T15:52:45.179Z,20.62
2019-04-05T15:57:50.683Z,18.65
2019-04-05T16:02:56.212Z,19.42
2019-04-05T16:08:01.766Z,18.20
2019-04-05T16:13:08.247Z,19.92
2019-04-05T16:18:14.607Z,20.60
2019-04-05T16:23:19.919Z,18.53
2019-04-05T16:28:25.266Z,20.60
2019-04-05T16:33:30.603Z,21.03
2019-04-05T16:38:36.365Z,22.67
2019-04-05T16:43:41.678Z,19.95
2019-04-05T16:48:47.040Z,20.43
2019-04-05T16:54:03.224Z,20.55
2019-04-05T16:59:08.979Z,21.23
2019-04-05T17:04:14.815Z,25.65
2019-04-05T17:09:20.704Z,21.65
2019-04-05T17:14:25.933Z,22.67
2019-04-05T17:19:31.640Z,22.07
2019-04-05T17:24:37.262Z,23.32
2019-04-05T17:29:42.668Z,24.00
2019-04-05T17:34:48.664Z,23.90
2019-04-05T17:39:54.585Z,25.50
2019-04-05T17:45:00.006Z,26.35
2019-04-05T17:50:05.838Z,26.53
2019-04-05T17:55:12.071Z,27.00
2019-04-05T18:00:21.910Z,25.85
2019-04-05T18:05:27.213Z,24.67
2019-04-05T18:10:32.691Z,26.30
2019-04-05T18:15:46.683Z,26.93
2019-04-05T18:20:45.810Z,26.45
2019-04-05T18:25:51.169Z,30.40
2019-04-05T18:30:56.569Z,31.37
2019-04-05T18:36:01.976Z,31.93
2019-04-05T18:41:07.309Z,32.50
2019-04-05T18:46:12.681Z,29.92
2019-04-05T18:51:18.298Z,32.03
2019-04-05T18:56:23.772Z,30.43
2019-04-05T19:01:29.079Z,37.73
2019-04-05T19:06:34.419Z,38.48
2019-04-05T19:11:39.771Z,33.83
2019-04-05T19:16:45.174Z,36.15
2019-04-05T19:21:52.194Z,36.73
2019-04-05T19:26:57.453Z,34.95
2019-04-05T19:52:34.271Z,31.12
2019-04-05T19:57:39.581Z,31.20
2019-04-05T20:02:44.901Z,28.30
2019-04-05T20:07:50.447Z,27.50
2019-04-05T20:12:55.826Z,28.67
2019-04-05T20:18:01.505Z,28.07
2019-04-05T20:23:07.389Z,28.02
2019-04-05T20:28:13.142Z,27.73
2019-04-05T20:33:18.561Z,26.15
2019-04-05T20:38:26.716Z,26.95
2019-04-05T20:43:32.218Z,25.23
2019-04-05T20:48:37.699Z,26.15
2019-04-05T20:53:44.450Z,25.13
2019-04-05T20:58:50.584Z,26.45
2019-04-05T21:03:56.892Z,28.80
2019-04-05T21:09:02.595Z,28.10
2019-04-05T21:14:10.545Z,29.60
2019-04-05T21:19:16.231Z,28.87
2019-04-05T21:24:21.969Z,28.07
2019-04-05T21:29:29.436Z,25.97
2019-04-05T21:34:35.129Z,26.37
2019-04-05T21:39:41.185Z,26.27
2019-04-05T21:44:46.617Z,27.13
2019-04-05T21:49:52.901Z,25.08
2019-04-05T21:54:58.890Z,26.02
2019-04-05T22:00:08.733Z,26.95
2019-04-05T22:05:15.889Z,26.55
2019-04-05T22:10:21.410Z,28.42
2019-04-05T22:15:26.836Z,28.35
2019-04-05T22:20:32.311Z,29.43
2019-04-05T22:25:37.663Z,30.77
2019-04-05T22:30:43.018Z,32.50
2019-04-05T22:35:48.686Z,31.75
2019-04-05T22:40:54.093Z,33.42
2019-04-05T22:45:59.741Z,33.58
2019-04-05T22:51:05.062Z,34.60
2019-04-05T22:56:10.326Z,35.13
2019-04-05T23:01:15.750Z,34.33
2019-04-05T23:06:21.465Z,34.73
2019-04-05T23:11:26.772Z,35.40
2019-04-05T23:16:32.293Z,37.35
2019-04-05T23:21:38.281Z,38.00
2019-04-05T23:26:43.640Z,37.53
2019-04-05T23:31:49.020Z,38.30
2019-04-05T23:36:54.584Z,37.85
2019-04-05T23:41:59.825Z,39.00
2019-04-05T23:47:05.168Z,39.92
2019-04-05T23:52:10.430Z,37.83
2019-04-05T23:57:16.083Z,39.85
